CYKL

Details ICAO CYKL (YKL)
Name SCHEFFERVILLE
Region Canada
Timezone America/Montreal (UTC-4.0)
Plans Departing 17
Arriving 13
Stats Elevation 1,709 ft / 521 m (AMSL)
Location 54.804722° -66.804722°
Runways 1
Magnetic Variation 20.869° W
Sunrise 2018-05-20 08:13:38 UTC / 2018-05-20 04:13:38 Local
Sunset 2018-05-21 00:36:43 UTC / 2018-05-20 20:36:43 Local
Advertisement - Login to hide

Runways

ID Width Length Bearing (true) Bearing (mag) Surface Threshold Offset Overrun Length
18 150 ft / 46 m 4,992 ft / 1,522 m 149.05° 169.92° Asphalt 0 ft / 0 m 250 ft / 76 m
36 150 ft / 46 m 4,992 ft / 1,522 m 329.06° 349.93° Asphalt 0 ft / 0 m 250 ft / 76 m

Map

Weather


0- 5 10 15 20 25 30 35+ Temperature / ° C

Clouds and Precipitation
Forecast for 2018-05-20 18:00 UTC. Updated an hour ago

Ground ~20,000 ft ~40,000 ft Winds

METAR

CYKL 201600Z AUTO 36011G18KT 9SM OVC014 01/M01 A2952 RMK SLP023

TAF

TAF CYKL 201338Z 2014/2102 35010KT 3SM -SN BKN005 OVC010 TEMPO 2014/2016 P6SM -RASN SCT005 OVC010 FM201600 33012G22KT P6SM SCT006 OVC010 TEMPO 2016/2018 2SM -SN BKN006 OVC010 FM201800 32010G20KT P6SM BKN015 OVC025 FM202100 30010G20KT P6SM BKN025 FM210100 VRB03KT P6SM SCT025 BKN090 RMK FCST BASED ON AUTO OBS. NXT FCST BY 202000Z

Frequencies

Recorded 124.60 MHz AWOS
Tower 122.20 MHz MF
Warning: Do not use this data for real-world aviation or navigation. No guarantee of current accuracy is given.